Time;durP1;ratioP1;P1;durP2;ratioP2;P2;SDS_P1;SDS_P2;PMS_P1;PMS_P2;Temp;Humidity;BMP_temperature;BMP_pressure;BME280_temperature;BME280_humidity;BME280_pressure;Samples;Min_cycle;Max_cycle;Signal;HPM_P1;HPM_P2
2022/07/05 00:00:57;;;;;;;20.35;12.43;;;24.60;50.20;;;;;;4922282;29;20035;-78
2022/07/05 00:03:23;;;;;;;20.30;13.02;;;24.60;49.70;;;;;;4932135;29;20019;-78
2022/07/05 00:05:49;;;;;;;21.48;13.70;;;24.60;50.30;;;;;;4936137;29;20082;-79
2022/07/05 00:08:15;;;;;;;23.50;13.52;;;24.60;50.80;;;;;;4936618;29;20035;-78
2022/07/05 00:10:41;;;;;;;17.98;12.75;;;24.60;50.90;;;;;;4933318;29;20036;-78
2022/07/05 00:13:07;;;;;;;23.88;13.07;;;24.60;50.80;;;;;;4919374;29;20543;-78
2022/07/05 00:15:34;;;;;;;20.83;12.35;;;24.60;50.80;;;;;;4934717;29;20034;-78
2022/07/05 00:18:00;;;;;;;17.90;11.27;;;24.60;50.80;;;;;;4933164;29;20039;-78
2022/07/05 00:20:27;;;;;;;20.23;11.98;;;24.60;50.90;;;;;;4972431;23;20462;-73
2022/07/05 00:22:53;;;;;;;21.50;11.95;;;24.60;51.00;;;;;;4973219;28;20074;-73
2022/07/05 00:25:18;;;;;;;24.08;11.38;;;24.60;50.70;;;;;;4979582;28;20031;-74
2022/07/05 00:27:45;;;;;;;17.80;10.45;;;24.60;50.90;;;;;;4973727;28;20431;-73
2022/07/05 00:30:12;;;;;;;17.10;10.10;;;24.60;50.80;;;;;;4974348;28;20031;-73
2022/07/05 00:32:37;;;;;;;20.55;10.90;;;24.60;51.00;;;;;;4974557;28;20058;-73
2022/07/05 00:35:07;;;;;;;20.35;10.93;;;24.60;51.00;;;;;;4979509;28;20050;-74
2022/07/05 00:37:33;;;;;;;19.45;10.32;;;24.60;51.00;;;;;;4964711;28;20023;-73
2022/07/05 00:39:59;;;;;;;20.60;10.07;;;24.60;51.10;;;;;;4988746;28;20514;-74
2022/07/05 00:42:25;;;;;;;19.52;10.63;;;24.60;51.00;;;;;;4973138;28;20030;-74
2022/07/05 00:44:51;;;;;;;16.42;9.18;;;24.60;51.10;;;;;;4973323;28;20034;-74
2022/07/05 00:47:17;;;;;;;16.63;9.02;;;24.60;51.10;;;;;;4988220;28;20029;-74
2022/07/05 00:49:44;;;;;;;33.28;10.60;;;24.60;51.10;;;;;;4944283;29;20038;-74
2022/07/05 00:52:11;;;;;;;15.18;8.50;;;24.60;51.00;;;;;;4971282;28;20141;-74
2022/07/05 00:54:38;;;;;;;14.77;8.57;;;24.60;51.20;;;;;;4971950;28;20117;-74
2022/07/05 00:57:05;;;;;;;16.05;8.43;;;24.60;51.30;;;;;;4940784;28;20178;-73
2022/07/05 00:59:31;;;;;;;23.30;8.95;;;24.60;51.40;;;;;;4972412;28;20027;-74
2022/07/05 01:01:58;;;;;;;20.15;8.75;;;24.60;51.40;;;;;;4973352;28;20156;-74
2022/07/05 01:04:25;;;;;;;16.55;7.97;;;24.60;51.50;;;;;;4982531;28;20471;-74
2022/07/05 01:06:52;;;;;;;16.98;7.70;;;24.60;51.50;;;;;;4973706;28;20031;-74
2022/07/05 01:09:20;;;;;;;14.55;7.47;;;24.60;51.40;;;;;;4971515;28;20035;-74
2022/07/05 01:11:51;;;;;;;17.23;8.25;;;24.60;51.50;;;;;;4971733;28;20031;-74
2022/07/05 01:14:19;;;;;;;16.75;8.43;;;24.60;51.50;;;;;;4972366;28;20033;-73
2022/07/05 01:16:45;;;;;;;18.60;7.60;;;24.60;51.50;;;;;;4971180;28;20104;-74
2022/07/05 01:19:12;;;;;;;17.98;7.63;;;24.60;51.50;;;;;;4949971;28;20126;-73
2022/07/05 01:21:47;;;;;;;23.15;7.45;;;24.60;51.50;;;;;;4942544;28;20027;-73
2022/07/05 01:24:15;;;;;;;15.02;7.53;;;24.60;51.70;;;;;;4971663;28;20283;-74
2022/07/05 01:26:43;;;;;;;17.23;7.32;;;24.60;51.70;;;;;;4977132;28;20105;-73
2022/07/05 01:29:09;;;;;;;13.30;6.00;;;24.60;51.70;;;;;;4968989;28;20507;-73
2022/07/05 01:31:45;;;;;;;18.05;7.03;;;24.60;51.80;;;;;;4966010;28;20450;-73
2022/07/05 01:34:11;;;;;;;17.75;7.10;;;24.60;51.80;;;;;;4971202;28;20031;-73
2022/07/05 01:36:38;;;;;;;15.93;7.10;;;24.60;51.80;;;;;;4953963;28;20030;-74
2022/07/05 01:39:07;;;;;;;15.38;6.95;;;24.60;51.80;;;;;;4976570;28;20065;-74
2022/07/05 01:41:33;;;;;;;12.70;6.60;;;24.60;52.00;;;;;;4972963;28;20034;-73
2022/07/05 01:43:59;;;;;;;15.32;6.03;;;24.60;52.10;;;;;;4973088;28;20023;-73
2022/07/05 01:46:29;;;;;;;13.38;6.55;;;24.60;52.00;;;;;;4971796;28;20114;-73
2022/07/05 01:48:58;;;;;;;11.85;6.43;;;24.60;52.10;;;;;;4971359;28;20030;-73
2022/07/05 01:51:29;;;;;;;10.73;6.18;;;24.60;52.20;;;;;;4971803;28;20030;-73
2022/07/05 01:53:55;;;;;;;9.95;5.18;;;24.60;52.30;;;;;;4960300;28;20513;-74
2022/07/05 01:56:20;;;;;;;11.90;5.65;;;24.60;52.20;;;;;;4971780;28;20050;-73
2022/07/05 01:58:46;;;;;;;12.82;5.28;;;24.60;52.30;;;;;;4966404;28;20067;-73
2022/07/05 02:01:12;;;;;;;8.15;5.13;;;24.60;52.70;;;;;;4936449;29;20035;-74
2022/07/05 02:03:43;;;;;;;12.93;5.35;;;24.60;52.30;;;;;;4968184;28;20384;-74
2022/07/05 02:06:10;;;;;;;11.07;5.60;;;24.60;52.30;;;;;;4974646;28;20546;-74
2022/07/05 02:08:36;;;;;;;13.02;5.05;;;24.60;52.40;;;;;;4955707;28;20042;-74
2022/07/05 02:11:03;;;;;;;9.07;4.68;;;24.60;52.40;;;;;;4987439;28;20031;-73
2022/07/05 02:13:30;;;;;;;13.00;5.25;;;24.60;52.40;;;;;;4987692;28;20034;-74
2022/07/05 02:15:56;;;;;;;9.15;5.15;;;24.60;52.50;;;;;;4970669;28;20045;-74
2022/07/05 02:18:24;;;;;;;10.63;4.53;;;24.60;52.50;;;;;;4970705;28;20130;-73
2022/07/05 02:20:52;;;;;;;9.25;4.28;;;24.60;52.50;;;;;;4987585;28;20042;-74
2022/07/05 02:23:18;;;;;;;10.57;4.55;;;24.60;52.50;;;;;;4971704;28;20023;-73
2022/07/05 02:25:44;;;;;;;11.82;4.78;;;24.60;52.50;;;;;;4970257;28;20499;-73
2022/07/05 02:28:14;;;;;;;11.57;4.32;;;24.60;52.60;;;;;;4966389;28;20034;-75
2022/07/05 02:30:41;;;;;;;9.75;3.90;;;24.60;52.60;;;;;;4970843;28;20446;-75
2022/07/05 02:33:08;;;;;;;10.73;4.53;;;24.60;52.60;;;;;;4961714;28;20035;-74
2022/07/05 02:35:33;;;;;;;9.88;4.38;;;24.60;52.60;;;;;;4971128;28;20102;-74
2022/07/05 02:38:00;;;;;;;9.60;3.80;;;24.60;52.60;;;;;;4972543;28;20031;-74
2022/07/05 02:40:25;;;;;;;8.93;4.32;;;24.60;52.70;;;;;;4971338;28;20266;-74
2022/07/05 02:42:52;;;;;;;10.55;4.07;;;24.60;52.70;;;;;;4955394;28;20042;-74
2022/07/05 02:45:19;;;;;;;7.60;3.88;;;24.60;52.70;;;;;;4985333;28;20070;-73
2022/07/05 02:47:50;;;;;;;8.68;4.35;;;24.60;52.60;;;;;;4970430;28;20039;-74
2022/07/05 02:50:17;;;;;;;8.25;3.78;;;24.60;52.70;;;;;;4963840;28;21222;-74
2022/07/05 02:52:47;;;;;;;8.35;3.55;;;24.60;52.80;;;;;;4954679;28;20034;-74
2022/07/05 02:55:15;;;;;;;9.15;4.03;;;24.60;52.80;;;;;;4955275;28;20383;-74
2022/07/05 02:57:41;;;;;;;8.82;3.80;;;24.60;52.80;;;;;;4954062;28;20054;-74
2022/07/05 03:00:10;;;;;;;5.70;3.15;;;24.60;52.80;;;;;;4971096;28;20097;-74
2022/07/05 03:02:40;;;;;;;10.65;3.47;;;24.60;52.90;;;;;;4955722;28;20027;-73
2022/07/05 03:05:08;;;;;;;6.70;3.30;;;24.60;52.90;;;;;;4954522;28;20069;-73
2022/07/05 03:07:34;;;;;;;8.40;3.40;;;24.60;52.90;;;;;;4959164;28;20072;-73
2022/07/05 03:10:01;;;;;;;8.15;3.45;;;24.60;52.90;;;;;;4952189;28;20037;-73
2022/07/05 03:12:28;;;;;;;9.52;3.28;;;24.60;53.00;;;;;;4978345;28;20097;-73
2022/07/05 03:14:55;;;;;;;5.65;3.10;;;24.60;52.80;;;;;;4961130;28;20023;-73
2022/07/05 03:17:22;;;;;;;8.35;3.13;;;24.60;53.00;;;;;;4961868;28;20488;-73
2022/07/05 03:19:48;;;;;;;6.43;3.15;;;24.60;53.10;;;;;;4973474;28;20514;-73
2022/07/05 03:22:15;;;;;;;4.57;2.95;;;24.60;52.90;;;;;;4957412;28;20415;-73
2022/07/05 03:24:42;;;;;;;7.30;3.13;;;24.60;53.00;;;;;;4962234;28;20495;-73
2022/07/05 03:27:10;;;;;;;6.93;2.88;;;24.60;52.90;;;;;;4990124;28;20125;-73
2022/07/05 03:29:37;;;;;;;5.57;3.30;;;24.60;53.10;;;;;;4973032;28;20041;-73
2022/07/05 03:32:04;;;;;;;4.85;2.78;;;24.60;53.10;;;;;;4973097;28;20113;-73
2022/07/05 03:34:30;;;;;;;8.30;2.80;;;24.60;53.20;;;;;;4958244;28;20170;-73
2022/07/05 03:36:58;;;;;;;6.45;3.00;;;24.60;53.20;;;;;;4974031;28;20034;-73
2022/07/05 03:39:24;;;;;;;6.72;3.03;;;24.60;53.20;;;;;;4973536;28;20027;-73
2022/07/05 03:41:50;;;;;;;5.68;2.72;;;24.60;53.30;;;;;;4957820;28;20053;-73
2022/07/05 03:44:20;;;;;;;;;;;24.60;53.20;;;;;;4982557;28;20042;-73
2022/07/05 03:46:46;;;;;;;7.25;2.80;;;24.60;53.30;;;;;;4976673;28;19914;-73
2022/07/05 03:49:13;;;;;;;8.00;2.75;;;24.60;53.30;;;;;;4987517;28;20529;-73
2022/07/05 03:51:39;;;;;;;7.28;2.88;;;24.60;53.30;;;;;;4965174;28;20039;-73
2022/07/05 03:54:05;;;;;;;6.88;2.88;;;24.60;53.20;;;;;;4970811;28;20035;-73
2022/07/05 03:56:31;;;;;;;6.95;3.00;;;24.60;53.30;;;;;;4970727;28;20082;-73
2022/07/05 03:59:01;;;;;;;5.38;2.55;;;24.60;53.30;;;;;;4971399;28;20041;-73
2022/07/05 04:01:29;;;;;;;6.18;2.65;;;24.60;53.30;;;;;;4973305;28;20508;-73
2022/07/05 04:03:56;;;;;;;4.15;2.42;;;24.50;53.30;;;;;;4988701;28;20022;-73
2022/07/05 04:06:24;;;;;;;4.32;2.67;;;24.60;53.40;;;;;;4969661;28;20109;-73
2022/07/05 04:08:50;;;;;;;6.78;2.53;;;24.50;53.30;;;;;;4972089;28;20031;-73
2022/07/05 04:11:16;;;;;;;4.65;2.45;;;24.50;53.30;;;;;;4988775;28;20376;-73
2022/07/05 04:13:45;;;;;;;5.15;2.65;;;24.60;53.40;;;;;;4989526;28;20038;-73
2022/07/05 04:16:12;;;;;;;4.97;2.50;;;24.50;53.30;;;;;;4973087;28;20039;-73
2022/07/05 04:18:37;;;;;;;6.93;2.42;;;24.50;53.40;;;;;;4973530;28;20062;-73
2022/07/05 04:21:05;;;;;;;4.72;2.63;;;24.50;53.40;;;;;;4973074;28;20380;-73
2022/07/05 04:23:31;;;;;;;6.03;2.50;;;24.50;53.30;;;;;;4979337;28;20023;-73
2022/07/05 04:25:59;;;;;;;8.77;2.38;;;24.60;53.50;;;;;;4973387;28;20125;-73
2022/07/05 04:28:38;;;;;;;7.35;2.60;;;24.50;53.30;;;;;;4989363;28;20039;-73
2022/07/05 04:31:08;;;;;;;5.75;2.13;;;24.60;53.40;;;;;;4972904;28;20031;-73
2022/07/05 04:33:40;;;;;;;6.40;2.40;;;24.50;53.40;;;;;;4979270;28;20031;-73
2022/07/05 04:36:06;;;;;;;6.03;2.10;;;24.50;53.30;;;;;;4984846;28;20026;-74
2022/07/05 04:38:32;;;;;;;4.50;2.28;;;24.60;53.50;;;;;;4972533;28;20399;-73
2022/07/05 04:41:00;;;;;;;5.28;1.98;;;24.60;53.40;;;;;;4971927;28;20027;-74
2022/07/05 04:43:28;;;;;;;6.30;2.25;;;24.60;53.50;;;;;;4972964;28;20074;-73
2022/07/05 04:45:55;;;;;;;6.82;2.13;;;24.50;53.50;;;;;;4973157;28;20023;-73
2022/07/05 04:48:21;;;;;;;6.53;2.38;;;24.50;53.50;;;;;;4972993;28;20035;-74
2022/07/05 04:50:47;;;;;;;3.67;1.80;;;24.60;53.40;;;;;;4972990;28;20071;-74
2022/07/05 04:53:13;;;;;;;5.82;2.20;;;24.60;53.40;;;;;;4972501;28;20086;-74
2022/07/05 04:55:39;;;;;;;7.65;2.72;;;24.60;53.50;;;;;;4973367;28;20448;-74
2022/07/05 04:58:04;;;;;;;5.00;1.98;;;24.60;53.50;;;;;;4972711;28;20518;-74
2022/07/05 05:00:30;;;;;;;7.75;2.28;;;24.60;53.50;;;;;;4988922;28;20109;-74
2022/07/05 05:02:56;;;;;;;6.22;2.22;;;24.60;53.50;;;;;;4974252;28;20035;-74
2022/07/05 05:05:22;;;;;;;4.78;2.20;;;24.60;53.30;;;;;;4972406;28;20042;-74
2022/07/05 05:07:48;;;;;;;5.10;1.90;;;24.60;53.40;;;;;;4971119;28;20050;-74
2022/07/05 05:10:14;;;;;;;4.60;2.25;;;24.60;53.40;;;;;;4972980;28;20484;-74
2022/07/05 05:12:39;;;;;;;7.82;2.50;;;24.60;53.60;;;;;;4972779;28;20029;-74
2022/07/05 05:15:09;;;;;;;5.47;1.98;;;24.60;53.40;;;;;;4973775;28;20031;-74
2022/07/05 05:17:40;;;;;;;5.05;2.13;;;24.60;53.60;;;;;;4973251;28;20025;-74
2022/07/05 05:20:11;;;;;;;4.95;2.10;;;24.60;53.50;;;;;;4972603;28;20035;-75
2022/07/05 05:22:37;;;;;;;5.65;1.92;;;24.60;53.70;;;;;;4984393;28;20106;-75
2022/07/05 05:25:03;;;;;;;7.68;2.20;;;24.50;53.70;;;;;;4972485;28;20022;-74
2022/07/05 05:27:29;;;;;;;7.45;2.08;;;24.50;53.70;;;;;;4970719;28;20041;-75
2022/07/05 05:29:55;;;;;;;7.43;2.00;;;24.50;53.70;;;;;;4973455;28;20105;-74
2022/07/05 05:32:21;;;;;;;9.13;1.80;;;24.50;53.60;;;;;;4941182;28;20031;-75
2022/07/05 05:34:47;;;;;;;5.53;1.95;;;24.50;53.70;;;;;;4971947;28;20133;-75
2022/07/05 05:37:12;;;;;;;5.50;2.03;;;24.50;53.70;;;;;;4971502;28;20113;-74
2022/07/05 05:39:38;;;;;;;7.03;1.95;;;24.60;53.70;;;;;;4971599;28;20030;-75
2022/07/05 05:42:05;;;;;;;5.45;1.95;;;24.50;53.60;;;;;;4968208;28;20047;-75
2022/07/05 05:44:31;;;;;;;3.90;1.83;;;24.50;53.40;;;;;;4963422;28;20026;-74
2022/07/05 05:46:56;;;;;;;3.72;1.83;;;24.60;53.60;;;;;;4972132;28;20413;-74
2022/07/05 05:49:22;;;;;;;7.78;2.47;;;24.50;53.60;;;;;;4980107;28;20419;-74
2022/07/05 05:51:48;;;;;;;5.32;1.88;;;24.50;53.60;;;;;;4971444;28;20109;-74
2022/07/05 05:54:14;;;;;;;4.20;1.73;;;24.50;53.60;;;;;;4971461;28;20041;-74
2022/07/05 05:56:40;;;;;;;6.35;1.80;;;24.50;53.60;;;;;;4966831;28;20428;-74
2022/07/05 05:59:06;;;;;;;5.13;1.90;;;24.60;53.70;;;;;;4967930;28;20120;-74
2022/07/05 06:01:31;;;;;;;7.43;2.00;;;24.50;53.60;;;;;;4971965;28;20031;-74
2022/07/05 06:03:57;;;;;;;6.68;1.80;;;24.60;53.60;;;;;;4972041;28;20058;-73
2022/07/05 06:06:23;;;;;;;7.28;1.95;;;24.50;53.50;;;;;;4971535;28;20030;-74
2022/07/05 06:08:49;;;;;;;5.25;1.65;;;24.50;53.60;;;;;;4987204;28;20035;-74
2022/07/05 06:11:15;;;;;;;4.63;1.50;;;24.60;53.50;;;;;;4972796;28;20022;-74
2022/07/05 06:13:40;;;;;;;5.15;1.63;;;24.50;53.50;;;;;;4971895;28;20034;-74
2022/07/05 06:16:07;;;;;;;4.57;1.40;;;24.60;53.60;;;;;;4972684;28;20030;-74
2022/07/05 06:18:33;;;;;;;5.35;1.60;;;24.50;53.30;;;;;;4969235;28;20061;-75
2022/07/05 06:20:59;;;;;;;4.00;1.52;;;24.50;53.50;;;;;;4998972;23;20538;-79
2022/07/05 06:23:24;;;;;;;5.90;2.00;;;24.60;53.30;;;;;;4962418;28;20023;-79
2022/07/05 06:25:50;;;;;;;3.05;1.50;;;24.60;53.40;;;;;;4959421;28;20139;-79
2022/07/05 06:28:16;;;;;;;8.07;1.92;;;24.60;53.50;;;;;;4959203;28;20035;-80
2022/07/05 06:30:42;;;;;;;7.07;1.73;;;24.60;53.30;;;;;;4942814;28;20031;-80
2022/07/05 06:33:08;;;;;;;8.00;1.85;;;24.60;53.30;;;;;;4987742;28;20034;-80
2022/07/05 06:35:34;;;;;;;6.15;1.50;;;24.60;53.40;;;;;;4939580;28;20408;-80
2022/07/05 06:38:05;;;;;;;5.70;1.77;;;24.60;53.10;;;;;;4970237;28;20041;-79
2022/07/05 06:40:33;;;;;;;4.50;1.80;;;24.60;53.40;;;;;;4951899;29;20175;-79
2022/07/05 06:43:01;;;;;;;5.22;2.00;;;24.60;53.00;;;;;;4962501;28;20089;-80
2022/07/05 06:45:38;;;;;;;4.05;1.38;;;24.60;53.00;;;;;;4968156;28;20023;-81
2022/07/05 06:48:09;;;;;;;5.53;1.33;;;24.60;53.00;;;;;;4945141;28;20062;-81
2022/07/05 06:50:38;;;;;;;6.35;1.60;;;24.60;53.10;;;;;;4959477;28;20039;-81
2022/07/05 06:53:05;;;;;;;6.95;1.38;;;24.60;53.20;;;;;;4965266;28;20182;-80
2022/07/05 06:55:31;;;;;;;7.10;1.80;;;24.60;53.40;;;;;;4959172;28;20039;-80
2022/07/05 06:58:02;;;;;;;9.18;2.08;;;24.60;53.50;;;;;;4974773;28;20407;-78
2022/07/05 07:00:28;;;;;;;6.07;1.50;;;24.60;53.70;;;;;;4973517;28;20141;-80
2022/07/05 07:02:54;;;;;;;2.90;1.27;;;24.60;53.20;;;;;;4955750;29;20027;-80
2022/07/05 07:05:20;;;;;;;5.97;1.40;;;24.60;53.00;;;;;;4968641;28;20105;-80
2022/07/05 07:10:30;;;;;;;5.75;1.95;;;24.60;53.50;;;;;;4962556;28;20027;-72
2022/07/05 07:12:57;;;;;;;11.05;2.20;;;24.60;53.50;;;;;;4968239;28;20023;-72
2022/07/05 07:15:24;;;;;;;6.72;1.90;;;24.60;53.30;;;;;;4962073;28;20054;-79
2022/07/05 07:17:50;;;;;;;11.07;1.98;;;24.50;53.00;;;;;;4969570;28;20023;-78
2022/07/05 07:20:16;;;;;;;11.73;2.53;;;24.50;53.20;;;;;;4958879;28;20114;-77
2022/07/05 07:22:42;;;;;;;7.95;1.98;;;24.50;51.10;;;;;;4957402;28;20106;-77
2022/07/05 07:25:08;;;;;;;8.05;2.75;;;24.40;51.80;;;;;;4964480;28;20039;-78
2022/07/05 07:27:49;;;;;;;7.13;2.75;;;24.40;51.20;;;;;;4964015;28;20102;-77
2022/07/05 07:30:23;;;;;;;7.30;2.55;;;24.30;50.20;;;;;;4959142;28;20039;-76
2022/07/05 07:32:49;;;;;;;10.77;2.17;;;24.40;50.70;;;;;;4972094;28;20043;-78
2022/07/05 07:35:15;;;;;;;7.25;2.38;;;24.30;50.50;;;;;;4967437;28;20031;-77
2022/07/05 07:37:41;;;;;;;4.47;1.33;;;24.30;48.50;;;;;;4966196;28;20085;-77
2022/07/05 07:40:08;;;;;;;9.75;1.35;;;23.80;46.10;;;;;;4966882;28;20027;-77
2022/07/05 07:42:34;;;;;;;3.30;1.33;;;23.80;47.10;;;;;;4971960;28;20070;-77
2022/07/05 07:45:03;;;;;;;4.15;1.42;;;24.00;48.20;;;;;;4970307;28;20034;-77
2022/07/05 07:47:36;;;;;;;8.38;1.60;;;24.00;47.90;;;;;;4966787;28;20167;-78
2022/07/05 07:50:03;;;;;;;3.35;1.23;;;24.10;47.90;;;;;;4955809;28;20062;-78
2022/07/05 07:52:33;;;;;;;6.25;1.55;;;24.20;48.20;;;;;;4973524;28;20448;-77
2022/07/05 07:55:00;;;;;;;4.00;1.45;;;24.20;48.50;;;;;;4963647;28;20035;-78
2022/07/05 07:57:26;;;;;;;3.53;1.17;;;24.20;48.20;;;;;;4973924;28;20027;-77
2022/07/05 07:59:52;;;;;;;6.05;1.38;;;24.30;48.80;;;;;;4974719;28;20105;-77
2022/07/05 08:02:20;;;;;;;6.47;1.30;;;24.30;47.80;;;;;;4965600;28;20039;-77
2022/07/05 08:04:48;;;;;;;5.43;1.40;;;24.30;48.00;;;;;;4964833;28;20026;-80
2022/07/05 08:07:13;;;;;;;4.82;1.38;;;24.30;48.00;;;;;;4956258;28;20290;-77
2022/07/05 08:09:39;;;;;;;3.22;1.20;;;24.30;48.30;;;;;;4964878;28;20052;-78
2022/07/05 08:12:06;;;;;;;6.35;1.30;;;24.30;48.50;;;;;;4958744;28;20035;-78
2022/07/05 08:14:31;;;;;;;2.47;0.95;;;24.40;48.10;;;;;;4971214;28;20098;-77
2022/07/05 08:16:58;;;;;;;5.88;1.33;;;24.40;48.50;;;;;;4959964;28;20035;-78
2022/07/05 08:22:09;;;;;;;4.57;1.40;;;24.40;48.60;;;;;;4972342;28;20031;-78
2022/07/05 08:24:37;;;;;;;4.00;1.33;;;24.40;48.10;;;;;;4972670;28;20364;-77
2022/07/05 08:27:03;;;;;;;2.42;1.50;;;24.30;48.50;;;;;;4964975;28;20032;-78
2022/07/05 08:29:29;;;;;;;3.15;1.20;;;24.30;48.50;;;;;;4981163;28;20045;-77
2022/07/05 08:31:55;;;;;;;7.75;1.42;;;24.40;48.10;;;;;;4972526;28;20057;-78
2022/07/05 08:34:21;;;;;;;4.82;1.50;;;24.30;48.40;;;;;;4978056;28;20030;-78
2022/07/05 08:36:48;;;;;;;5.88;1.60;;;24.30;48.70;;;;;;4966831;28;20035;-78
2022/07/05 08:39:15;;;;;;;3.40;1.40;;;24.30;47.70;;;;;;4969128;28;20146;-77
2022/07/05 08:41:42;;;;;;;4.93;1.90;;;24.40;48.30;;;;;;4954975;28;20032;-77
2022/07/05 08:44:09;;;;;;;6.05;1.70;;;24.30;48.40;;;;;;4970294;28;20392;-78
2022/07/05 08:46:39;;;;;;;3.97;1.60;;;24.30;48.30;;;;;;4959739;28;20529;-78
2022/07/05 08:49:05;;;;;;;5.70;1.75;;;24.30;48.30;;;;;;4961401;28;20388;-78
2022/07/05 08:51:34;;;;;;;3.72;1.38;;;24.30;47.80;;;;;;4964963;28;20038;-78
2022/07/05 08:54:00;;;;;;;5.50;1.70;;;24.30;47.10;;;;;;4955623;28;20042;-78
2022/07/05 08:56:26;;;;;;;6.45;1.60;;;24.30;47.40;;;;;;4970909;28;20110;-77
2022/07/05 08:58:51;;;;;;;2.80;1.48;;;24.20;47.90;;;;;;4974142;28;20110;-78
2022/07/05 09:01:18;;;;;;;5.07;1.50;;;24.30;47.30;;;;;;4974075;28;20027;-77
2022/07/05 09:03:49;;;;;;;3.63;1.30;;;24.20;47.60;;;;;;4972825;28;20396;-78
2022/07/05 09:06:21;;;;;;;5.18;1.52;;;24.20;47.40;;;;;;4974052;28;20180;-78
2022/07/05 09:08:50;;;;;;;3.97;1.65;;;24.30;47.00;;;;;;4973058;28;20034;-78
2022/07/05 09:11:18;;;;;;;4.20;1.40;;;24.30;48.10;;;;;;4967364;28;20401;-78
2022/07/05 09:13:49;;;;;;;7.30;1.60;;;24.30;47.40;;;;;;4970142;28;20026;-78
2022/07/05 09:16:15;;;;;;;2.83;1.40;;;24.30;47.10;;;;;;4959363;28;20154;-78
2022/07/05 09:18:46;;;;;;;5.28;1.85;;;24.20;47.10;;;;;;4955486;28;20035;-77
2022/07/05 09:21:21;;;;;;;4.78;1.50;;;24.20;46.30;;;;;;4958170;28;20058;-79
2022/07/05 09:23:57;;;;;;;3.42;1.63;;;24.20;46.90;;;;;;4961060;28;20039;-78
2022/07/05 09:26:44;;;;;;;5.43;1.65;;;24.20;46.90;;;;;;4951846;28;20507;-79
2022/07/05 09:29:18;;;;;;;3.47;1.38;;;24.20;47.10;;;;;;4958680;28;20035;-78
2022/07/05 09:31:47;;;;;;;6.90;1.80;;;24.20;47.20;;;;;;4963316;28;20039;-78
2022/07/05 09:34:22;;;;;;;4.28;1.63;;;24.20;47.10;;;;;;4961728;28;20048;-77
2022/07/05 09:36:58;;;;;;;3.45;1.30;;;24.20;47.10;;;;;;4963983;28;20093;-78
2022/07/05 09:39:36;;;;;;;4.80;1.52;;;24.20;47.40;;;;;;4962087;28;20171;-78
2022/07/05 09:42:24;;;;;;;3.72;1.55;;;24.30;47.30;;;;;;4955116;28;20031;-76
2022/07/05 09:44:53;;;;;;;3.05;1.40;;;24.20;46.80;;;;;;4948364;28;20545;-77
2022/07/05 09:47:22;;;;;;;4.28;1.60;;;24.20;46.90;;;;;;4964543;28;20495;-76
2022/07/05 09:49:49;;;;;;;5.05;1.40;;;24.10;46.70;;;;;;4957522;28;20038;-76
2022/07/05 09:52:29;;;;;;;3.65;1.40;;;24.10;46.60;;;;;;4965701;28;20034;-76
2022/07/05 09:55:04;;;;;;;6.32;1.50;;;24.20;47.40;;;;;;4969274;28;20035;-76
2022/07/05 09:57:31;;;;;;;4.82;1.45;;;24.10;46.40;;;;;;4980064;28;20035;-77
2022/07/05 10:00:05;;;;;;;3.47;1.48;;;24.20;47.60;;;;;;4961436;28;20027;-77
2022/07/05 10:02:36;;;;;;;4.90;1.73;;;24.30;48.00;;;;;;4968816;28;20031;-75
2022/07/05 10:05:16;;;;;;;6.50;1.50;;;24.20;47.30;;;;;;4966136;28;20035;-75
2022/07/05 10:07:44;;;;;;;5.90;1.80;;;24.30;47.80;;;;;;4969072;28;20026;-75
2022/07/05 10:10:14;;;;;;;5.45;1.70;;;24.40;47.60;;;;;;4964250;28;20055;-76
2022/07/05 10:12:41;;;;;;;;;;;24.40;48.10;;;;;;4963766;28;20057;-76
2022/07/05 10:15:13;;;;;;;5.72;1.73;;;24.50;48.60;;;;;;4966149;28;19916;-76
2022/07/05 10:17:45;;;;;;;7.95;2.03;;;24.60;49.10;;;;;;4963521;28;20031;-76
2022/07/05 10:20:21;;;;;;;5.65;2.05;;;24.70;49.20;;;;;;4967863;28;20050;-75
2022/07/05 10:22:47;;;;;;;7.72;2.17;;;24.70;49.30;;;;;;4967465;28;20503;-77
2022/07/05 10:25:14;;;;;;;12.02;2.72;;;24.70;49.40;;;;;;4963211;28;20058;-78
2022/07/05 10:27:40;;;;;;;13.70;2.20;;;24.70;49.60;;;;;;4958773;28;20110;-78
2022/07/05 10:30:07;;;;;;;12.50;2.20;;;24.70;49.40;;;;;;4974849;28;20079;-78
2022/07/05 10:32:35;;;;;;;7.88;1.90;;;24.70;49.40;;;;;;4975312;28;20057;-78
2022/07/05 10:35:03;;;;;;;12.57;2.70;;;24.70;49.50;;;;;;4965863;28;20447;-75
2022/07/05 10:37:30;;;;;;;5.90;2.17;;;24.70;49.10;;;;;;4961417;28;20027;-79
2022/07/05 10:39:58;;;;;;;9.93;2.67;;;24.70;49.10;;;;;;4991097;28;20495;-78
2022/07/05 10:42:25;;;;;;;12.00;3.38;;;24.70;49.60;;;;;;4968487;28;20026;-78
2022/07/05 10:44:51;;;;;;;9.85;2.38;;;24.70;52.00;;;;;;4990517;28;20033;-78
2022/07/05 10:47:18;;;;;;;25.92;4.55;;;24.80;53.10;;;;;;4967434;28;20019;-77
2022/07/05 10:50:08;;;;;;;16.60;3.00;;;24.80;58.30;;;;;;4959642;28;20483;-78
2022/07/05 10:52:34;;;;;;;21.10;3.05;;;24.80;54.00;;;;;;4966881;28;20032;-79
2022/07/05 10:55:22;;;;;;;11.75;2.83;;;24.70;54.60;;;;;;4968475;28;20084;-76
2022/07/05 10:58:16;;;;;;;23.00;3.00;;;24.70;52.10;;;;;;4973846;28;20103;-77
2022/07/05 11:00:43;;;;;;;15.25;3.10;;;24.70;53.10;;;;;;4970878;28;20031;-78
2022/07/05 11:03:34;;;;;;;10.43;2.35;;;24.70;52.00;;;;;;4965783;28;20031;-77
2022/07/05 11:06:02;;;;;;;11.63;3.30;;;24.70;51.60;;;;;;4961237;28;20395;-77
2022/07/05 11:08:30;;;;;;;14.68;3.97;;;24.70;53.40;;;;;;4970777;28;20387;-77
2022/07/05 11:11:13;;;;;;;10.88;2.60;;;24.70;53.00;;;;;;4963750;28;20050;-77
2022/07/05 11:13:47;;;;;;;5.28;1.92;;;24.50;48.90;;;;;;4966695;28;20023;-78
2022/07/05 11:16:24;;;;;;;8.50;2.53;;;24.30;48.20;;;;;;4961161;28;20086;-79
2022/07/05 11:19:13;;;;;;;11.52;2.05;;;24.40;50.40;;;;;;4970697;28;20552;-81
2022/07/05 11:21:58;;;;;;;7.97;2.40;;;24.40;50.40;;;;;;4972543;28;20035;-81
2022/07/05 11:24:30;;;;;;;10.10;2.45;;;24.40;50.60;;;;;;4965809;28;20023;-83
2022/07/05 11:27:01;;;;;;;12.38;2.35;;;24.50;50.70;;;;;;4966035;28;20043;-83
2022/07/05 11:29:43;;;;;;;8.02;2.13;;;24.50;50.90;;;;;;4972372;28;20054;-82
2022/07/05 11:32:14;;;;;;;5.43;1.85;;;24.50;50.70;;;;;;4973552;28;20034;-82
2022/07/05 11:34:41;;;;;;;6.03;2.10;;;24.50;50.80;;;;;;4974226;28;20041;-82
2022/07/05 11:37:26;;;;;;;7.95;2.40;;;24.50;50.70;;;;;;4955438;28;20122;-83
2022/07/05 11:40:10;;;;;;;10.18;2.60;;;24.50;50.70;;;;;;4970340;28;20042;-81
2022/07/05 11:42:45;;;;;;;4.65;1.42;;;24.50;50.70;;;;;;4969700;28;20590;-83
2022/07/05 11:45:11;;;;;;;5.82;1.90;;;24.50;50.70;;;;;;4972921;28;20050;-81
2022/07/05 11:47:37;;;;;;;6.40;2.05;;;24.50;50.80;;;;;;4985150;28;20023;-73
2022/07/05 11:50:03;;;;;;;4.03;1.20;;;24.50;50.80;;;;;;4981314;28;20031;-73
2022/07/05 11:52:31;;;;;;;5.25;2.38;;;24.20;47.00;;;;;;4967157;28;20043;-72
2022/07/05 11:54:59;;;;;;;4.45;2.00;;;24.20;49.30;;;;;;4966883;28;20551;-72
2022/07/05 11:57:25;;;;;;;8.18;3.15;;;24.20;46.70;;;;;;4966706;28;20085;-73
2022/07/05 11:59:55;;;;;;;7.65;2.20;;;24.30;47.50;;;;;;4964717;28;20035;-72
2022/07/05 12:02:27;;;;;;;4.95;1.92;;;24.30;46.10;;;;;;4962131;28;20543;-73
2022/07/05 12:04:55;;;;;;;4.25;1.35;;;24.30;45.90;;;;;;4980134;28;20089;-78
2022/07/05 12:07:34;;;;;;;4.50;1.52;;;24.10;44.50;;;;;;4964168;28;20098;-78
2022/07/05 12:12:47;;;;;;;5.22;1.33;;;23.90;44.80;;;;;;4964790;28;20054;-77
2022/07/05 12:15:17;;;;;;;4.55;1.63;;;23.90;46.10;;;;;;4964083;28;20034;-78
2022/07/05 12:17:43;;;;;;;;;;;23.90;44.90;;;;;;4932324;28;20487;-77
2022/07/05 12:20:11;;;;;;;3.80;1.40;;;23.90;45.30;;;;;;4965604;28;20280;-77
2022/07/05 12:22:40;;;;;;;8.35;1.50;;;24.00;45.90;;;;;;4964164;28;20016;-77
2022/07/05 12:25:09;;;;;;;3.15;1.42;;;23.80;44.00;;;;;;4978306;23;20091;-75
2022/07/05 12:27:37;;;;;;;4.28;1.50;;;23.80;45.30;;;;;;4907150;29;20033;-75
2022/07/05 12:30:05;;;;;;;6.88;1.40;;;23.80;44.40;;;;;;4917135;29;20028;-75
2022/07/05 12:32:31;;;;;;;6.47;1.42;;;23.80;44.50;;;;;;4917060;29;20055;-75
2022/07/05 12:34:58;;;;;;;4.63;1.65;;;23.90;45.30;;;;;;4917049;29;20036;-75
2022/07/05 12:37:26;;;;;;;3.75;1.42;;;24.10;45.10;;;;;;4899702;29;20438;-75
2022/07/05 12:40:20;;;;;;;6.65;1.73;;;24.20;45.00;;;;;;4912781;29;20037;-75
2022/07/05 12:42:46;;;;;;;8.48;3.00;;;24.30;44.60;;;;;;4911203;29;20036;-75
2022/07/05 12:45:16;;;;;;;2.63;1.33;;;24.20;44.50;;;;;;4913162;29;20034;-75
2022/07/05 12:47:55;;;;;;;4.32;1.60;;;24.10;42.50;;;;;;4916681;29;20111;-75
2022/07/05 12:50:24;;;;;;;3.33;1.20;;;23.90;43.20;;;;;;4914462;29;20036;-75
2022/07/05 12:53:00;;;;;;;5.75;1.42;;;23.90;43.10;;;;;;4916758;29;20035;-75
2022/07/05 12:58:31;;;;;;;5.15;1.63;;;24.00;44.80;;;;;;4931023;29;20043;-75
2022/07/05 13:00:57;;;;;;;2.83;1.63;;;24.00;44.50;;;;;;4916613;29;20111;-75
2022/07/05 13:03:22;;;;;;;5.22;1.70;;;24.00;42.90;;;;;;4916679;29;20024;-75